Terminal Aerodrome Forecast
Issued by NWS

Home | Current Version | Previous Version | Text Only | Print | Product List | Glossary On
Versions: 1 2 3 4 5 6 7 8 9 10 11 12 13 14 15 16 17 18 19 20 21 22 23 24 25 26 27 28 29 30
000
FTUS45 KGJT 222327
TAFTEX
TAF
KTEX 222327Z 2300/2324 17006KT 5SM -RA SCT050 OVC070
      TEMPO 2300/2302 VRB15G30KT 3SM TSRA SCT030 BKN040CB
     FM230300 15003KT P6SM VCSH SCT060 BKN090
     FM231200 14004KT P6SM VCSH SCT060 BKN090
     FM231800 25006KT P6SM BKN150=

USA.gov is the U.S. government's official web portal to all federal, state and local government web resources and services.